Time;durP1;ratioP1;P1;durP2;ratioP2;P2;SDS_P1;SDS_P2;PMS_P1;PMS_P2;Temp;Humidity;BMP_temperature;BMP_pressure;BME280_temperature;BME280_humidity;BME280_pressure;Samples;Min_cycle;Max_cycle;Signal;HPM_P1;HPM_P2
2021/03/11 00:00:36;;;;;;;25.00;14.93;;;5.90;99.90;;;;;;4991015;28;20984;-58
2021/03/11 00:03:11;;;;;;;26.47;14.40;;;5.90;99.90;;;;;;4994241;28;20192;-58
2021/03/11 00:05:38;;;;;;;31.03;15.67;;;5.90;99.90;;;;;;5002512;28;20197;-51
2021/03/11 00:08:04;;;;;;;26.53;15.80;;;5.80;99.90;;;;;;5008300;28;20584;-57
2021/03/11 00:10:31;;;;;;;27.97;15.17;;;5.80;99.90;;;;;;5005023;28;20250;-56
2021/03/11 00:12:56;;;;;;;27.67;15.73;;;5.80;99.90;;;;;;5005597;28;20208;-54
2021/03/11 00:15:23;;;;;;;28.73;16.47;;;5.80;99.90;;;;;;4990037;28;20203;-60
2021/03/11 00:17:49;;;;;;;31.77;16.77;;;5.80;99.90;;;;;;5003018;28;20176;-55
2021/03/11 00:20:21;;;;;;;31.47;16.90;;;5.80;99.90;;;;;;4997274;28;20192;-58
2021/03/11 00:22:48;;;;;;;29.13;16.37;;;5.80;99.90;;;;;;5007358;28;20180;-60
2021/03/11 00:25:16;;;;;;;29.73;16.50;;;5.80;99.90;;;;;;5004015;28;20227;-59
2021/03/11 00:27:41;;;;;;;27.67;16.80;;;5.80;99.90;;;;;;5003866;28;20165;-58
2021/03/11 00:30:09;;;;;;;31.33;17.83;;;5.70;99.90;;;;;;5004732;28;20606;-57
2021/03/11 00:32:35;;;;;;;27.30;17.53;;;5.70;99.90;;;;;;4980569;28;20211;-59
2021/03/11 00:35:01;;;;;;;29.07;17.60;;;5.70;99.90;;;;;;4999187;28;20224;-58
2021/03/11 00:37:27;;;;;;;34.57;17.03;;;5.70;99.90;;;;;;5001142;28;20196;-53
2021/03/11 00:39:53;;;;;;;32.43;17.13;;;5.70;99.90;;;;;;5004496;28;20177;-55
2021/03/11 00:42:18;;;;;;;33.43;18.23;;;5.70;99.90;;;;;;5002274;28;20181;-59
2021/03/11 00:44:44;;;;;;;35.90;20.03;;;5.60;99.90;;;;;;5002189;28;20184;-52
2021/03/11 00:47:10;;;;;;;35.30;19.03;;;5.60;99.90;;;;;;4988908;28;20204;-59
2021/03/11 00:49:35;;;;;;;34.33;17.73;;;5.60;99.90;;;;;;4997420;28;20341;-59
2021/03/11 00:52:03;;;;;;;31.73;17.70;;;5.60;99.90;;;;;;5008076;28;20209;-57
2021/03/11 00:54:28;;;;;;;31.90;17.30;;;5.60;99.90;;;;;;5003575;28;20226;-57
2021/03/11 00:56:54;;;;;;;33.20;18.37;;;5.60;99.90;;;;;;5005082;28;20196;-52
2021/03/11 00:59:20;;;;;;;34.40;18.87;;;5.60;99.90;;;;;;5001260;28;20707;-60
2021/03/11 01:01:46;;;;;;;32.60;17.80;;;5.60;99.90;;;;;;5009996;28;20739;-57
2021/03/11 01:04:12;;;;;;;31.13;17.37;;;5.60;99.90;;;;;;4981592;28;20201;-57
2021/03/11 01:06:39;;;;;;;31.03;18.70;;;5.60;99.90;;;;;;4997775;28;20980;-57
2021/03/11 01:09:07;;;;;;;33.73;16.70;;;5.60;99.90;;;;;;5002576;28;20217;-57
2021/03/11 01:11:33;;;;;;;28.90;16.43;;;5.60;99.90;;;;;;5002563;28;20196;-57
2021/03/11 01:13:59;;;;;;;24.97;14.67;;;5.60;99.90;;;;;;5008033;28;20808;-56
2021/03/11 01:16:25;;;;;;;29.17;16.60;;;5.60;99.90;;;;;;4994672;28;20201;-59
2021/03/11 01:18:50;;;;;;;27.43;16.03;;;5.60;99.90;;;;;;4993230;28;20203;-57
2021/03/11 01:21:16;;;;;;;27.13;16.13;;;5.60;99.90;;;;;;4999719;28;20193;-59
2021/03/11 01:23:42;;;;;;;28.97;16.33;;;5.60;99.90;;;;;;5006722;28;20173;-57
2021/03/11 01:26:08;;;;;;;28.60;15.80;;;5.60;99.90;;;;;;5008009;28;20208;-59
2021/03/11 01:28:34;;;;;;;28.33;16.57;;;5.60;99.90;;;;;;5002551;28;20172;-58
2021/03/11 01:30:59;;;;;;;27.87;16.17;;;5.50;99.90;;;;;;5007577;28;20537;-58
2021/03/11 01:33:25;;;;;;;24.27;13.87;;;5.50;99.90;;;;;;4976883;28;20200;-59
2021/03/11 01:35:50;;;;;;;25.47;14.50;;;5.50;99.90;;;;;;4999762;28;20559;-58
2021/03/11 01:38:16;;;;;;;25.23;15.23;;;5.50;99.90;;;;;;5001259;28;20556;-59
2021/03/11 01:40:42;;;;;;;22.33;14.30;;;5.50;99.90;;;;;;4993848;28;20173;-57
2021/03/11 01:43:07;;;;;;;24.00;14.30;;;5.50;99.90;;;;;;4987217;28;20178;-59
2021/03/11 01:45:33;;;;;;;22.80;14.63;;;5.50;99.90;;;;;;4984170;28;20216;-55
2021/03/11 01:47:58;;;;;;;24.57;14.17;;;5.50;99.90;;;;;;5003560;28;20188;-54
2021/03/11 01:50:24;;;;;;;24.20;14.23;;;5.50;99.90;;;;;;4972816;28;20251;-58
2021/03/11 01:52:50;;;;;;;22.37;13.93;;;5.50;99.90;;;;;;4995796;28;20247;-58
2021/03/11 01:55:17;;;;;;;22.20;13.30;;;5.50;99.90;;;;;;4994888;28;20669;-59
2021/03/11 01:57:44;;;;;;;22.70;13.93;;;5.50;99.90;;;;;;4986934;28;20939;-54
2021/03/11 02:00:11;;;;;;;26.30;14.47;;;5.50;99.90;;;;;;4987349;28;20599;-60
2021/03/11 02:02:43;;;;;;;21.53;14.47;;;5.50;99.90;;;;;;4985275;28;20197;-53
2021/03/11 02:05:11;;;;;;;23.17;13.67;;;5.50;99.90;;;;;;4985979;28;20193;-59
2021/03/11 02:07:36;;;;;;;20.37;13.33;;;5.50;99.90;;;;;;4994451;28;20200;-55
2021/03/11 02:10:04;;;;;;;22.07;13.83;;;5.40;99.90;;;;;;4998137;28;20195;-53
2021/03/11 02:12:55;;;;;;;23.40;14.07;;;5.40;99.90;;;;;;5003880;28;20317;-59
2021/03/11 02:15:26;;;;;;;25.30;14.07;;;5.40;99.90;;;;;;5006801;28;20526;-58
2021/03/11 02:18:08;;;;;;;19.60;12.67;;;5.40;99.90;;;;;;5003495;28;20219;-56
2021/03/11 02:20:42;;;;;;;22.23;14.10;;;5.40;99.90;;;;;;4991100;28;20200;-56
2021/03/11 02:23:24;;;;;;;20.00;12.77;;;5.40;99.90;;;;;;5010530;28;20665;-56
2021/03/11 02:26:12;;;;;;;21.53;13.93;;;5.40;99.90;;;;;;4999938;28;20811;-60
2021/03/11 02:29:02;;;;;;;20.13;13.40;;;5.30;99.90;;;;;;5005348;28;20177;-56
2021/03/11 02:31:30;;;;;;;21.47;13.60;;;5.30;99.90;;;;;;5006546;28;20181;-52
2021/03/11 02:33:58;;;;;;;22.83;11.90;;;5.30;99.90;;;;;;5007059;28;20173;-56
2021/03/11 02:36:25;;;;;;;22.67;13.13;;;5.30;99.90;;;;;;4991089;28;20280;-60
2021/03/11 02:38:53;;;;;;;23.80;13.30;;;5.30;99.90;;;;;;4994810;28;20236;-55
2021/03/11 02:41:20;;;;;;;22.87;13.63;;;5.30;99.90;;;;;;5000507;28;20188;-57
2021/03/11 02:43:48;;;;;;;22.43;13.47;;;5.30;99.90;;;;;;5005796;28;20180;-52
2021/03/11 02:46:18;;;;;;;22.37;13.33;;;5.30;99.90;;;;;;5006835;28;20317;-59
2021/03/11 02:48:45;;;;;;;21.73;14.13;;;5.30;99.90;;;;;;4997531;28;20927;-57
2021/03/11 02:51:12;;;;;;;16.00;10.20;;;5.30;99.90;;;;;;4987873;28;20178;-57
2021/03/11 02:53:39;;;;;;;17.07;10.67;;;5.20;99.90;;;;;;4980769;28;20215;-58
2021/03/11 02:56:05;;;;;;;25.07;14.20;;;5.20;99.90;;;;;;4995503;28;20273;-59
2021/03/11 02:58:32;;;;;;;21.07;13.20;;;5.20;99.90;;;;;;4983572;28;20186;-57
2021/03/11 03:01:00;;;;;;;21.80;14.07;;;5.20;99.90;;;;;;4986848;28;20188;-52
2021/03/11 03:03:28;;;;;;;22.67;13.07;;;5.20;99.90;;;;;;4984918;28;20181;-58
2021/03/11 03:05:56;;;;;;;21.37;12.20;;;5.20;99.90;;;;;;4987629;28;20197;-59
2021/03/11 03:08:22;;;;;;;20.83;11.23;;;5.20;99.90;;;;;;4974311;28;20192;-57
2021/03/11 03:10:48;;;;;;;20.03;12.63;;;5.20;99.90;;;;;;4997217;28;20208;-56
2021/03/11 03:13:16;;;;;;;23.10;13.70;;;5.20;99.90;;;;;;4990627;28;20201;-57
2021/03/11 03:15:43;;;;;;;21.07;13.90;;;5.20;99.90;;;;;;4988923;28;20216;-53
2021/03/11 03:18:11;;;;;;;23.27;14.70;;;5.30;99.90;;;;;;4999271;28;20176;-59
2021/03/11 03:20:37;;;;;;;24.37;14.93;;;5.20;99.90;;;;;;4983569;28;20170;-51
2021/03/11 03:23:05;;;;;;;23.07;14.20;;;5.30;99.90;;;;;;4992270;28;20279;-54
2021/03/11 03:25:31;;;;;;;21.53;13.87;;;5.30;99.90;;;;;;4988423;28;20852;-59
2021/03/11 03:27:57;;;;;;;23.67;14.80;;;5.30;99.90;;;;;;4993585;28;20211;-59
2021/03/11 03:30:24;;;;;;;22.27;13.50;;;5.30;99.90;;;;;;4982995;28;20225;-57
2021/03/11 03:32:50;;;;;;;21.37;13.80;;;5.30;99.90;;;;;;4986271;28;20209;-57
2021/03/11 03:35:17;;;;;;;22.67;14.33;;;5.30;99.90;;;;;;4985670;28;20182;-58
2021/03/11 03:37:43;;;;;;;22.73;14.67;;;5.30;99.90;;;;;;4988350;28;20173;-57
2021/03/11 03:40:12;;;;;;;23.87;13.57;;;5.30;99.90;;;;;;4977916;28;20193;-59
2021/03/11 03:43:04;;;;;;;24.30;13.57;;;5.30;99.90;;;;;;4997748;28;20244;-57
2021/03/11 03:45:33;;;;;;;20.87;13.27;;;5.40;99.90;;;;;;5004911;28;20903;-58
2021/03/11 03:48:03;;;;;;;24.10;13.57;;;5.40;99.90;;;;;;5002817;28;20186;-59
2021/03/11 03:50:31;;;;;;;22.17;14.20;;;5.40;99.90;;;;;;4981959;28;20248;-56
2021/03/11 03:52:57;;;;;;;21.37;13.70;;;5.40;99.90;;;;;;4986266;28;20764;-59
2021/03/11 03:55:26;;;;;;;19.60;13.57;;;5.40;99.90;;;;;;4979153;28;20200;-58
2021/03/11 03:57:55;;;;;;;19.67;12.70;;;5.50;99.90;;;;;;4994553;28;20184;-55
2021/03/11 04:00:22;;;;;;;19.90;13.07;;;5.50;99.90;;;;;;4983017;28;20205;-58
2021/03/11 04:02:52;;;;;;;24.27;13.47;;;5.50;99.90;;;;;;4985109;28;20193;-59
2021/03/11 04:05:19;;;;;;;19.43;12.23;;;5.50;99.90;;;;;;4984260;28;20188;-58
2021/03/11 04:07:46;;;;;;;20.60;13.10;;;5.50;99.90;;;;;;4988178;28;20169;-58
2021/03/11 04:10:12;;;;;;;19.30;11.97;;;5.50;99.90;;;;;;4983247;28;20190;-60
2021/03/11 04:12:39;;;;;;;16.93;11.83;;;5.60;99.90;;;;;;4983955;28;20303;-55
2021/03/11 04:15:06;;;;;;;21.00;12.70;;;5.60;99.90;;;;;;4999569;28;20184;-60
2021/03/11 04:17:33;;;;;;;18.87;11.63;;;5.60;99.90;;;;;;4999803;28;20778;-58
2021/03/11 04:20:02;;;;;;;17.33;11.30;;;5.60;99.90;;;;;;4989198;28;20213;-58
2021/03/11 04:22:28;;;;;;;20.30;12.33;;;5.60;99.90;;;;;;4983487;28;20208;-56
2021/03/11 04:24:55;;;;;;;20.47;11.87;;;5.60;99.90;;;;;;4986007;28;20184;-60
2021/03/11 04:27:21;;;;;;;17.87;12.47;;;5.60;99.90;;;;;;4978796;28;20689;-57
2021/03/11 04:29:48;;;;;;;18.80;11.67;;;5.60;99.90;;;;;;4996193;28;20280;-59
2021/03/11 04:32:14;;;;;;;16.63;11.47;;;5.60;99.90;;;;;;5007043;28;20204;-59
2021/03/11 04:34:40;;;;;;;20.30;12.03;;;5.70;99.90;;;;;;5006673;28;20217;-52
2021/03/11 04:37:06;;;;;;;18.53;11.97;;;5.70;99.90;;;;;;5004004;28;20232;-50
2021/03/11 04:39:32;;;;;;;16.70;11.03;;;5.70;99.90;;;;;;5000319;28;20859;-54
2021/03/11 04:41:58;;;;;;;15.70;10.03;;;5.70;99.90;;;;;;5004854;28;20187;-57
2021/03/11 04:44:25;;;;;;;17.03;11.03;;;5.70;99.90;;;;;;4979537;28;20196;-59
2021/03/11 04:46:52;;;;;;;15.97;11.00;;;5.70;99.90;;;;;;5000699;28;20213;-60
2021/03/11 04:49:18;;;;;;;18.10;12.00;;;5.70;99.90;;;;;;4985256;28;20173;-58
2021/03/11 04:51:45;;;;;;;16.83;11.20;;;5.70;99.90;;;;;;4985733;28;21036;-58
2021/03/11 04:54:12;;;;;;;14.93;10.77;;;5.70;99.90;;;;;;4984874;28;20181;-59
2021/03/11 04:56:40;;;;;;;14.43;9.80;;;5.80;99.90;;;;;;4982761;28;20280;-54
2021/03/11 04:59:06;;;;;;;17.20;12.20;;;5.80;99.90;;;;;;4973484;28;20199;-54
2021/03/11 05:01:39;;;;;;;16.83;11.10;;;5.80;99.90;;;;;;4998198;28;20271;-57
2021/03/11 05:04:06;;;;;;;17.33;11.13;;;5.80;99.90;;;;;;5005601;28;20188;-58
2021/03/11 05:06:31;;;;;;;17.87;11.00;;;5.80;99.90;;;;;;5004438;28;20220;-58
2021/03/11 05:08:57;;;;;;;18.90;12.10;;;5.80;99.90;;;;;;4995366;28;20173;-54
2021/03/11 05:11:22;;;;;;;17.50;11.57;;;5.80;99.90;;;;;;4985657;28;20680;-59
2021/03/11 05:13:48;;;;;;;18.47;11.80;;;5.80;99.90;;;;;;4976705;28;20247;-60
2021/03/11 05:16:13;;;;;;;14.03;9.63;;;5.80;99.90;;;;;;5003165;28;20274;-59
2021/03/11 05:18:39;;;;;;;15.50;10.67;;;5.80;99.90;;;;;;4983487;28;20174;-59
2021/03/11 05:21:06;;;;;;;15.70;10.83;;;5.80;99.90;;;;;;4985284;28;20229;-59
2021/03/11 05:23:32;;;;;;;14.67;10.20;;;5.80;99.90;;;;;;4981870;28;20462;-56
2021/03/11 05:25:57;;;;;;;14.37;10.73;;;5.80;99.90;;;;;;4988235;28;20201;-58
2021/03/11 05:28:23;;;;;;;17.27;10.50;;;5.80;99.90;;;;;;4983816;28;20585;-59
2021/03/11 05:30:49;;;;;;;17.20;10.77;;;5.80;99.90;;;;;;4983523;28;20192;-58
2021/03/11 05:33:15;;;;;;;15.23;10.27;;;5.90;99.90;;;;;;4997887;28;20251;-59
2021/03/11 05:35:41;;;;;;;14.97;11.07;;;5.90;99.90;;;;;;4990303;28;20307;-53
2021/03/11 05:38:07;;;;;;;15.20;10.73;;;5.90;99.90;;;;;;5004589;28;20212;-56
2021/03/11 05:40:33;;;;;;;17.00;10.70;;;5.90;99.90;;;;;;4999533;28;20203;-52
2021/03/11 05:43:01;;;;;;;16.90;11.10;;;5.90;99.90;;;;;;5004089;28;20169;-50
2021/03/11 05:45:27;;;;;;;16.93;10.47;;;5.90;99.90;;;;;;4985190;28;20229;-60
2021/03/11 05:47:53;;;;;;;14.00;10.07;;;5.90;99.90;;;;;;4992251;28;20178;-55
2021/03/11 05:50:19;;;;;;;15.20;10.17;;;5.90;99.90;;;;;;4997963;28;20188;-59
2021/03/11 05:52:46;;;;;;;16.97;10.80;;;5.90;99.90;;;;;;5003493;28;20204;-60
2021/03/11 05:55:12;;;;;;;15.67;10.03;;;5.90;99.90;;;;;;5003149;28;20185;-58
2021/03/11 05:57:42;;;;;;;14.30;9.97;;;5.90;99.90;;;;;;5004371;28;20173;-58
2021/03/11 06:00:09;;;;;;;15.70;10.97;;;5.90;99.90;;;;;;5004874;28;20660;-60
2021/03/11 06:02:35;;;;;;;14.40;10.50;;;5.90;99.90;;;;;;4982244;28;20930;-51
2021/03/11 06:05:00;;;;;;;14.73;10.33;;;5.90;99.90;;;;;;4992953;28;20268;-57
2021/03/11 06:07:28;;;;;;;16.27;10.83;;;5.90;99.90;;;;;;5001391;28;20445;-59
2021/03/11 06:10:02;;;;;;;14.30;10.23;;;5.90;99.90;;;;;;4987731;28;20260;-56
2021/03/11 06:12:29;;;;;;;13.87;9.90;;;6.00;99.90;;;;;;4984030;28;20227;-58
2021/03/11 06:15:16;;;;;;;14.03;10.50;;;6.00;99.90;;;;;;4988946;28;20650;-56
2021/03/11 06:17:43;;;;;;;14.00;10.23;;;6.00;99.90;;;;;;4991985;28;20193;-57
2021/03/11 06:20:09;;;;;;;14.17;9.37;;;6.00;99.90;;;;;;4992085;28;20253;-59
2021/03/11 06:22:35;;;;;;;12.90;9.03;;;6.00;99.90;;;;;;4999839;28;20188;-54
2021/03/11 06:25:02;;;;;;;17.00;9.97;;;6.00;99.90;;;;;;4987418;28;21627;-55
2021/03/11 06:27:27;;;;;;;14.73;10.53;;;6.00;99.90;;;;;;5002473;28;20233;-58
2021/03/11 06:29:55;;;;;;;14.80;10.10;;;6.00;99.90;;;;;;4994809;28;20197;-54
2021/03/11 06:32:20;;;;;;;14.47;9.60;;;6.10;99.90;;;;;;4981567;28;20236;-58
2021/03/11 06:34:46;;;;;;;14.70;9.90;;;6.00;99.90;;;;;;4995458;28;20361;-58
2021/03/11 06:37:16;;;;;;;12.83;9.47;;;6.10;99.90;;;;;;5003076;28;20189;-55
2021/03/11 06:39:43;;;;;;;17.00;10.20;;;6.10;99.90;;;;;;4996017;28;20189;-58
2021/03/11 06:42:09;;;;;;;18.67;11.20;;;6.10;99.90;;;;;;5002681;28;20189;-57
2021/03/11 06:44:44;;;;;;;15.30;8.90;;;6.10;99.90;;;;;;5002538;28;20185;-56
2021/03/11 06:47:14;;;;;;;12.00;9.00;;;6.10;99.90;;;;;;4979343;28;20216;-58
2021/03/11 06:49:59;;;;;;;12.40;8.73;;;6.10;99.90;;;;;;5003173;28;20204;-59
2021/03/11 06:52:26;;;;;;;13.27;9.03;;;6.20;99.90;;;;;;4999799;28;20208;-58
2021/03/11 06:54:56;;;;;;;15.50;10.57;;;6.10;99.90;;;;;;4997036;28;20204;-60
2021/03/11 06:57:33;;;;;;;12.90;9.27;;;6.20;99.90;;;;;;4995199;28;20219;-59
2021/03/11 07:00:04;;;;;;;12.33;9.40;;;6.20;99.90;;;;;;4989688;28;20711;-59
2021/03/11 07:02:30;;;;;;;15.27;10.17;;;6.20;99.90;;;;;;4982405;28;20276;-59
2021/03/11 07:05:10;;;;;;;15.40;10.70;;;6.20;99.90;;;;;;4984477;28;20308;-58
2021/03/11 07:07:35;;;;;;;12.63;9.07;;;6.20;99.90;;;;;;5002304;28;20184;-58
2021/03/11 07:10:01;;;;;;;14.03;10.17;;;6.30;99.90;;;;;;4985488;28;20795;-60
2021/03/11 07:12:50;;;;;;;13.63;10.30;;;6.30;99.90;;;;;;4997214;28;20216;-59
2021/03/11 07:15:17;;;;;;;10.90;9.10;;;6.30;99.90;;;;;;5002546;28;20173;-60
2021/03/11 07:17:42;;;;;;;12.23;9.43;;;6.30;99.90;;;;;;4993221;28;20187;-59
2021/03/11 07:20:13;;;;;;;14.00;10.00;;;6.30;99.90;;;;;;5008294;28;20193;-59
2021/03/11 07:22:40;;;;;;;17.43;9.97;;;6.40;99.90;;;;;;5003400;28;20610;-59
2021/03/11 07:25:29;;;;;;;11.67;9.17;;;6.40;99.90;;;;;;4999403;28;20184;-58
2021/03/11 07:27:55;;;;;;;12.20;8.77;;;6.50;99.90;;;;;;4988259;28;20189;-56
2021/03/11 07:30:22;;;;;;;11.87;8.90;;;6.50;99.90;;;;;;5001191;28;20191;-52
2021/03/11 07:32:48;;;;;;;13.00;9.43;;;6.60;99.90;;;;;;4997676;28;20263;-58
2021/03/11 07:35:18;;;;;;;11.33;8.77;;;6.60;99.90;;;;;;4975546;28;20193;-58
2021/03/11 07:37:48;;;;;;;12.03;9.37;;;6.60;99.90;;;;;;4994188;28;20180;-58
2021/03/11 07:40:15;;;;;;;11.27;8.17;;;6.70;99.90;;;;;;4990109;28;20208;-57
2021/03/11 07:42:42;;;;;;;18.87;11.60;;;6.80;99.90;;;;;;4990540;28;20192;-60
2021/03/11 07:45:10;;;;;;;12.67;9.33;;;6.90;99.90;;;;;;4990972;28;20248;-58
2021/03/11 07:47:37;;;;;;;17.87;10.87;;;7.00;99.90;;;;;;4983118;28;20201;-58
2021/03/11 07:50:04;;;;;;;11.43;8.93;;;7.00;99.90;;;;;;4984555;28;20201;-59
2021/03/11 07:52:31;;;;;;;15.10;9.83;;;7.10;99.90;;;;;;5002658;28;20212;-59
2021/03/11 07:54:58;;;;;;;12.40;8.57;;;7.20;99.90;;;;;;4994487;28;20192;-58
2021/03/11 07:57:24;;;;;;;14.17;9.10;;;7.30;99.90;;;;;;4999753;28;20295;-58
2021/03/11 07:59:50;;;;;;;10.43;8.20;;;7.30;99.90;;;;;;4997954;28;20201;-58
2021/03/11 08:02:19;;;;;;;10.27;8.43;;;7.40;99.90;;;;;;5004818;28;20181;-58
2021/03/11 08:04:46;;;;;;;9.93;7.47;;;7.50;99.90;;;;;;5006247;28;20181;-56
2021/03/11 08:07:25;;;;;;;9.70;7.07;;;7.50;99.90;;;;;;4989683;28;20239;-59
2021/03/11 08:09:53;;;;;;;12.33;8.47;;;7.50;99.90;;;;;;5000259;28;20193;-60
2021/03/11 08:12:37;;;;;;;11.20;7.67;;;7.60;99.90;;;;;;4992451;28;20215;-56
2021/03/11 08:15:26;;;;;;;27.73;11.33;;;7.60;99.90;;;;;;4989386;28;20201;-59
2021/03/11 08:17:54;;;;;;;11.70;8.57;;;7.60;99.90;;;;;;4999228;28;20615;-58
2021/03/11 08:20:37;;;;;;;16.83;8.30;;;7.70;99.90;;;;;;4994226;28;20193;-58
2021/03/11 08:23:03;;;;;;;12.17;7.97;;;7.70;99.90;;;;;;4980504;28;20197;-58
2021/03/11 08:25:37;;;;;;;10.20;8.17;;;7.70;99.90;;;;;;4993830;28;20209;-60
2021/03/11 08:28:25;;;;;;;8.53;6.63;;;7.70;99.90;;;;;;4999156;28;20200;-58
2021/03/11 08:31:02;;;;;;;13.10;8.30;;;7.70;99.90;;;;;;5004575;28;20243;-58
2021/03/11 08:33:27;;;;;;;17.77;10.10;;;7.80;99.90;;;;;;5000643;28;20250;-60
2021/03/11 08:35:57;;;;;;;11.43;9.43;;;7.80;99.90;;;;;;4994804;28;20250;-58
2021/03/11 08:38:22;;;;;;;17.30;10.03;;;7.80;99.90;;;;;;4987536;28;20212;-59
2021/03/11 08:41:09;;;;;;;11.03;8.00;;;7.90;99.90;;;;;;4995101;28;20224;-57
2021/03/11 08:43:37;;;;;;;10.47;7.77;;;8.00;99.90;;;;;;4995402;28;20255;-53
2021/03/11 08:46:09;;;;;;;11.87;7.67;;;8.10;99.90;;;;;;4989261;28;20215;-57
2021/03/11 08:48:49;;;;;;;10.97;8.00;;;8.20;99.90;;;;;;4992348;28;20197;-57
2021/03/11 08:51:17;;;;;;;17.70;10.40;;;8.30;99.90;;;;;;4998160;28;20188;-56
2021/03/11 08:53:48;;;;;;;10.93;7.27;;;8.30;99.90;;;;;;4984194;28;20267;-59
2021/03/11 08:56:17;;;;;;;8.13;7.03;;;8.30;99.90;;;;;;4999623;28;20208;-57
2021/03/11 08:59:01;;;;;;;8.90;6.97;;;8.40;99.90;;;;;;5005772;28;20703;-57
2021/03/11 09:01:35;;;;;;;7.73;6.77;;;8.40;99.90;;;;;;5002556;28;20275;-57
2021/03/11 09:04:03;;;;;;;15.07;9.57;;;8.30;99.90;;;;;;4994236;28;20278;-57
2021/03/11 09:06:57;;;;;;;10.97;8.20;;;8.30;99.90;;;;;;4997469;28;20213;-59
2021/03/11 09:09:39;;;;;;;15.83;8.87;;;8.40;99.90;;;;;;4982391;28;20205;-59
2021/03/11 09:12:11;;;;;;;10.23;8.17;;;8.40;99.90;;;;;;4987159;28;20244;-59
2021/03/11 09:14:37;;;;;;;9.80;8.47;;;8.40;99.90;;;;;;5007608;28;20185;-58
2021/03/11 09:17:04;;;;;;;14.17;9.23;;;8.40;99.90;;;;;;4998352;28;20970;-58
2021/03/11 09:19:46;;;;;;;10.50;8.20;;;8.50;99.90;;;;;;5004072;28;20216;-56
2021/03/11 09:22:22;;;;;;;13.03;9.13;;;8.60;99.90;;;;;;5003266;28;20879;-57
2021/03/11 09:25:13;;;;;;;9.13;7.87;;;8.70;99.90;;;;;;4978202;28;20557;-58
2021/03/11 09:27:55;;;;;;;10.43;7.70;;;8.70;99.90;;;;;;4995258;28;20644;-57
2021/03/11 09:30:41;;;;;;;9.30;6.77;;;8.80;99.90;;;;;;5002820;28;20250;-57
2021/03/11 09:33:11;;;;;;;10.53;7.33;;;8.80;99.90;;;;;;4992450;28;20204;-49
2021/03/11 09:35:38;;;;;;;8.70;5.97;;;8.90;99.90;;;;;;4998426;28;20635;-60
2021/03/11 09:38:05;;;;;;;7.70;6.90;;;8.90;99.90;;;;;;4983349;28;20285;-54
2021/03/11 09:40:35;;;;;;;9.83;7.10;;;9.00;99.90;;;;;;4991925;28;20204;-60
2021/03/11 09:43:10;;;;;;;10.07;6.97;;;9.20;99.90;;;;;;4983733;28;20246;-53
2021/03/11 09:45:38;;;;;;;11.77;7.07;;;9.30;99.90;;;;;;4991623;28;20219;-57
2021/03/11 09:48:06;;;;;;;12.13;8.47;;;9.40;99.90;;;;;;4989583;28;20208;-58
2021/03/11 09:50:32;;;;;;;10.63;7.60;;;9.50;99.90;;;;;;4997934;28;20203;-58
2021/03/11 09:52:59;;;;;;;16.07;8.20;;;9.60;99.90;;;;;;5002704;28;20295;-59
2021/03/11 09:55:25;;;;;;;9.23;6.37;;;9.80;99.90;;;;;;5004366;28;20196;-58
2021/03/11 09:57:50;;;;;;;10.90;7.33;;;9.90;99.90;;;;;;4977717;28;20961;-60
2021/03/11 10:00:18;;;;;;;10.30;6.00;;;10.10;99.90;;;;;;4990428;28;20181;-57
2021/03/11 10:02:47;;;;;;;7.53;5.90;;;10.20;99.90;;;;;;4994399;28;20181;-59
2021/03/11 10:05:13;;;;;;;12.57;7.13;;;10.20;99.90;;;;;;4988750;28;20610;-60
2021/03/11 10:07:39;;;;;;;11.60;7.00;;;10.30;99.90;;;;;;4989981;28;20177;-53
2021/03/11 10:10:11;;;;;;;7.30;6.13;;;10.30;99.90;;;;;;5001669;28;20176;-60
2021/03/11 10:12:38;;;;;;;15.40;8.27;;;10.40;99.90;;;;;;4984833;28;23523;-55
2021/03/11 10:15:09;;;;;;;10.17;6.77;;;10.50;99.90;;;;;;4988267;28;20696;-59
2021/03/11 10:17:34;;;;;;;10.00;7.57;;;10.80;99.90;;;;;;4989438;28;20256;-55
2021/03/11 10:20:36;;;;;;;9.30;6.03;;;11.00;99.90;;;;;;4998303;28;20697;-57
2021/03/11 10:23:20;;;;;;;6.73;5.10;;;11.10;99.90;;;;;;4991571;28;20231;-59
2021/03/11 10:26:06;;;;;;;8.87;5.43;;;11.10;99.90;;;;;;5000178;28;20231;-56
2021/03/11 10:28:32;;;;;;;7.87;5.70;;;11.10;99.90;;;;;;4985582;28;20196;-58
2021/03/11 10:30:58;;;;;;;5.20;4.70;;;11.00;99.90;;;;;;4996617;28;20177;-59
2021/03/11 10:33:24;;;;;;;7.30;5.53;;;11.00;99.90;;;;;;4989967;28;20258;-57
2021/03/11 10:35:50;;;;;;;9.63;5.43;;;11.00;99.90;;;;;;5005767;28;20193;-57
2021/03/11 10:38:17;;;;;;;7.00;5.13;;;11.00;99.90;;;;;;5000939;28;20560;-57
2021/03/11 10:40:43;;;;;;;8.73;4.37;;;11.00;99.90;;;;;;4992273;28;20233;-57
2021/03/11 10:43:17;;;;;;;8.40;5.53;;;10.90;99.90;;;;;;4997645;28;20188;-59
2021/03/11 10:45:43;;;;;;;10.07;4.77;;;10.90;99.90;;;;;;5003191;28;20224;-58
2021/03/11 10:48:09;;;;;;;6.33;4.47;;;10.80;99.90;;;;;;5008156;28;20242;-58
2021/03/11 10:50:45;;;;;;;9.27;6.60;;;10.80;99.90;;;;;;5003967;28;20207;-57
2021/03/11 10:53:12;;;;;;;9.00;5.77;;;10.70;99.90;;;;;;5003832;28;20638;-58
2021/03/11 10:55:43;;;;;;;8.70;5.33;;;10.60;99.90;;;;;;5008805;28;20196;-58
2021/03/11 10:58:23;;;;;;;7.17;4.77;;;10.50;99.90;;;;;;4989911;28;20182;-59
2021/03/11 11:00:49;;;;;;;9.77;5.47;;;10.40;99.90;;;;;;4991861;28;20195;-56
2021/03/11 11:03:19;;;;;;;8.90;4.67;;;10.20;99.90;;;;;;4991777;28;20193;-57
2021/03/11 11:05:45;;;;;;;8.13;5.83;;;9.90;99.90;;;;;;5000050;28;20198;-57
2021/03/11 11:08:11;;;;;;;9.20;6.43;;;9.60;99.90;;;;;;5004356;28;20180;-58
2021/03/11 11:10:37;;;;;;;9.77;5.90;;;9.40;99.90;;;;;;5000010;28;20199;-56
2021/03/11 11:13:02;;;;;;;6.13;4.83;;;9.40;99.90;;;;;;5009029;28;20286;-59
2021/03/11 11:15:31;;;;;;;8.27;5.10;;;9.50;99.90;;;;;;4982783;28;20219;-57
2021/03/11 11:17:57;;;;;;;10.57;5.83;;;9.60;99.90;;;;;;5003311;28;20227;-58
2021/03/11 11:20:24;;;;;;;7.30;4.80;;;9.60;99.90;;;;;;4999214;28;20593;-55
2021/03/11 11:22:49;;;;;;;8.27;4.90;;;9.70;99.90;;;;;;5005304;28;20188;-58
2021/03/11 11:25:15;;;;;;;9.90;4.37;;;9.80;99.90;;;;;;4998270;28;20235;-58
2021/03/11 11:27:41;;;;;;;8.80;4.60;;;10.00;99.90;;;;;;5001610;28;20185;-56
2021/03/11 11:30:10;;;;;;;9.10;5.03;;;10.10;99.90;;;;;;4989935;28;20231;-58
2021/03/11 11:32:35;;;;;;;10.60;4.73;;;10.20;99.90;;;;;;4991198;28;20314;-58
2021/03/11 11:35:01;;;;;;;6.90;3.67;;;10.40;99.90;;;;;;4985846;28;20653;-57
2021/03/11 11:37:27;;;;;;;7.93;3.53;;;10.50;99.90;;;;;;4994889;28;20993;-58
2021/03/11 11:39:53;;;;;;;5.47;3.10;;;10.70;99.90;;;;;;4987599;28;20178;-58
2021/03/11 11:42:18;;;;;;;6.00;3.30;;;10.70;99.90;;;;;;4993209;28;20189;-59
2021/03/11 11:44:45;;;;;;;5.27;3.00;;;10.80;99.90;;;;;;5009847;28;20247;-57
2021/03/11 11:47:12;;;;;;;3.10;1.80;;;11.00;99.90;;;;;;4975829;28;20681;-57
2021/03/11 11:49:39;;;;;;;4.77;2.60;;;11.20;99.90;;;;;;4997911;28;20227;-57
2021/03/11 11:52:06;;;;;;;6.00;2.33;;;11.30;99.90;;;;;;5000442;28;20372;-57
2021/03/11 11:54:33;;;;;;;3.80;1.70;;;11.50;99.90;;;;;;4998810;28;20846;-55
2021/03/11 11:56:59;;;;;;;5.70;2.20;;;11.60;99.90;;;;;;4999642;28;20212;-54
2021/03/11 11:59:24;;;;;;;7.87;2.30;;;11.70;99.90;;;;;;5002210;28;20302;-56
2021/03/11 12:01:50;;;;;;;4.27;2.23;;;11.70;99.90;;;;;;4982434;28;20194;-57
2021/03/11 12:04:15;;;;;;;4.90;1.87;;;11.70;99.90;;;;;;4995601;28;20177;-57
2021/03/11 12:06:41;;;;;;;5.57;2.43;;;11.80;99.90;;;;;;4993197;28;20205;-59
2021/03/11 12:09:07;;;;;;;5.50;2.23;;;12.00;99.90;;;;;;4994902;28;20196;-57
2021/03/11 12:11:34;;;;;;;3.77;1.93;;;12.10;99.90;;;;;;4996934;28;20212;-57
2021/03/11 12:14:00;;;;;;;5.00;1.93;;;12.10;99.90;;;;;;5002141;28;20323;-59
2021/03/11 12:16:26;;;;;;;5.90;1.87;;;12.10;99.90;;;;;;4984272;28;20615;-58
2021/03/11 12:18:52;;;;;;;6.43;2.30;;;12.10;99.90;;;;;;4999276;28;20210;-58
2021/03/11 12:21:17;;;;;;;5.07;2.10;;;12.10;99.90;;;;;;5000400;28;20200;-57
2021/03/11 12:23:43;;;;;;;6.87;1.93;;;12.10;99.90;;;;;;4998313;28;20193;-56
2021/03/11 12:26:09;;;;;;;5.10;2.30;;;12.00;99.90;;;;;;5001828;28;20731;-57
2021/03/11 12:28:35;;;;;;;10.13;1.67;;;12.00;99.90;;;;;;4997896;28;20819;-57
2021/03/11 12:31:02;;;;;;;8.40;1.73;;;11.90;99.90;;;;;;5002843;28;20181;-56
2021/03/11 12:33:28;;;;;;;8.90;2.27;;;11.80;99.90;;;;;;4976487;28;20271;-55
2021/03/11 12:35:54;;;;;;;5.03;1.53;;;11.80;99.90;;;;;;4988115;28;20608;-56
2021/03/11 12:38:20;;;;;;;4.10;1.33;;;11.60;99.90;;;;;;4993800;28;20817;-55
2021/03/11 12:40:46;;;;;;;7.07;2.53;;;11.50;99.90;;;;;;4993176;28;20707;-57
2021/03/11 12:43:11;;;;;;;6.13;1.30;;;11.50;99.90;;;;;;4995096;28;20184;-56
2021/03/11 12:45:37;;;;;;;4.10;1.50;;;11.30;99.90;;;;;;5001720;28;20579;-56
2021/03/11 12:48:03;;;;;;;6.93;2.80;;;11.30;99.90;;;;;;4987273;28;20692;-56
2021/03/11 12:50:28;;;;;;;6.30;2.30;;;11.30;99.90;;;;;;4994696;28;20191;-55